Flight Track Log - Related Links

Times and Time Zones

All times are in EDT time to prevent confusion due to time zone crossing. See the AMF1324 flight status page for this flight to view local times or setup timezone preferences in your user account.

Time Position Orientation Groundspeed Altitude Reporting Facility
EDT Latitude Longitude Course Direction KTS MPH feet Rate Location/Type
Tue 06:36:26 AM 42.9333 -78.7333 216° Southwest 119 137 1,600  Level Buffalo TRACON
Tue 06:37:08 AM 42.9167 -78.7500 216° Southwest 135 155 3,500 2,156 Climbing Buffalo TRACON
Tue 06:39:38 AM 42.9167 -78.5972 90° East 198 228 8,500 1,791 Climbing Cleveland Center
Tue 06:40:39 AM 42.9156 -78.5044 91° East 239 275 9,800 1,279 Climbing Cleveland Center
Tue 06:41:40 AM 42.9031 -78.4136 101° East 255 293 11,100 1,377 Climbing Cleveland Center
Tue 06:42:41 AM 42.8953 -78.3147 96° East 263 303 12,600 934 Climbing Cleveland Center
Tue 06:43:42 AM 42.8889 -78.2119 95° East 275 316 13,000 195 Climbing Cleveland Center
Tue 06:44:44 AM 42.8817 -78.1022 95° East 289 333 13,000  Level Cleveland Center
Tue 06:45:45 AM 42.8736 -77.9911 96° East 292 336 13,000  Level Cleveland Center
Tue 06:46:46 AM 42.8631 -77.8794 97° East 294 338 13,000  Level Cleveland Center
Tue 06:47:47 AM 42.8478 -77.7683 101° East 295 339 13,000  Level Cleveland Center
Tue 06:48:48 AM 42.8131 -77.6419 110° East 295 339 13,000  Level Cleveland Center
Tue 06:49:50 AM 42.7669 -77.5517 125° Southeast 291 335 13,000  Level Cleveland Center
Tue 06:50:51 AM 42.7186 -77.4628 126° Southeast 290 334 13,000  Level Cleveland Center
Tue 06:51:52 AM 42.6781 -77.3647 119° Southeast 290 334 13,000  Level Cleveland Center
Tue 06:52:53 AM 42.6375 -77.2667 119° Southeast 293 337 13,000  Level Cleveland Center
Tue 06:53:55 AM 42.5975 -77.1697 119° Southeast 295 339 13,000  Level Cleveland Center
Tue 06:54:56 AM 42.5578 -77.0697 118° Southeast 296 341 13,000  Level Cleveland Center
Tue 06:55:57 AM 42.5175 -76.9692 118° Southeast 301 346 13,000  Level Cleveland Center
Tue 06:56:59 AM 42.4778 -76.8669 118° Southeast 301 346 13,000 -365 Level Cleveland Center
Tue 06:57:52 AM 42.4361 -76.7689 120° Southeast 301 346 12,300 -637 Descending New York Center
Tue 06:58:52 AM 42.4128 -76.6542 105° East 301 346 11,800 -800 Descending New York Center
Tue 06:59:52 AM 42.3933 -76.5403 103° East 307 353 10,700 -1,318 Descending New York Center
Tue 07:01:04 AM 42.3686 -76.4011 103° East 315 362 8,900 -1,650 Descending Cleveland Center
Tue 07:01:52 AM 42.3536 -76.3236 105° East 295 339 7,400 -1,778 Descending New York Center
Tue 07:02:52 AM 42.3308 -76.2289 108° East 282 325 5,700 -1,400 Descending New York Center
Tue 07:03:52 AM 42.3036 -76.1397 112° Southeast 263 303 4,600 -500 Descending New York Center
Tue 07:04:52 AM 42.3028 -76.0697 91° East 221 254 4,700 -550 Climbing New York Center
Tue 07:05:52 AM 42.2792 -76.0397 137° Southeast 142 163 3,500 -1,050 Descending New York Center
Tue 07:06:52 AM 42.2550 -76.0211 150° Southeast 134 154 2,600 -900 Descending New York Center

Login

Don't have an account? Register now (free) for customized features, flight alerts, and more!